sensor_id;sensor_type;location;lat;lon;timestamp;pressure;altitude;pressure_sealevel;temperature;humidity
79413;BME280;68863;49.528;11.010;2023-09-19T00:00:40;97771.41;;;19.85;66.05
79413;BME280;68863;49.528;11.010;2023-09-19T00:01:42;97771.78;;;19.97;65.71
79413;BME280;68863;49.528;11.010;2023-09-19T00:02:44;97774.59;;;19.80;65.55
79413;BME280;68863;49.528;11.010;2023-09-19T00:03:47;97777.88;;;19.91;65.53
79413;BME280;68863;49.528;11.010;2023-09-19T00:04:47;97769.28;;;19.80;65.43
79413;BME280;68863;49.528;11.010;2023-09-19T00:05:48;97778.28;;;19.79;65.38
79413;BME280;68863;49.528;11.010;2023-09-19T00:06:50;97778.22;;;19.88;65.36
79413;BME280;68863;49.528;11.010;2023-09-19T00:07:51;97772.97;;;19.79;65.62
79413;BME280;68863;49.528;11.010;2023-09-19T00:08:54;97771.16;;;19.95;65.48
79413;BME280;68863;49.528;11.010;2023-09-19T00:09:55;97772.88;;;19.88;65.32
79413;BME280;68863;49.528;11.010;2023-09-19T00:10:55;97776.09;;;19.83;64.74
79413;BME280;68863;49.528;11.010;2023-09-19T00:11:56;97779.22;;;19.87;65.01
79413;BME280;68863;49.528;11.010;2023-09-19T00:12:58;97773.63;;;19.96;64.71
79413;BME280;68863;49.528;11.010;2023-09-19T00:13:59;97779.22;;;19.87;64.90
79413;BME280;68863;49.528;11.010;2023-09-19T00:14:59;97782.91;;;19.86;64.75
79413;BME280;68863;49.528;11.010;2023-09-19T00:16:00;97786.31;;;19.94;65.36
79413;BME280;68863;49.528;11.010;2023-09-19T00:17:02;97779.91;;;20.03;64.68
79413;BME280;68863;49.528;11.010;2023-09-19T00:18:08;97783.19;;;19.91;64.65
79413;BME280;68863;49.528;11.010;2023-09-19T00:19:09;97786.50;;;19.93;64.86
79413;BME280;68863;49.528;11.010;2023-09-19T00:20:10;97787.16;;;19.95;64.83
79413;BME280;68863;49.528;11.010;2023-09-19T00:21:12;97789.94;;;20.01;63.99
79413;BME280;68863;49.528;11.010;2023-09-19T00:22:13;97796.78;;;19.96;63.66
79413;BME280;68863;49.528;11.010;2023-09-19T00:23:15;97794.13;;;19.96;64.21
79413;BME280;68863;49.528;11.010;2023-09-19T00:24:15;97799.47;;;19.96;64.09
79413;BME280;68863;49.528;11.010;2023-09-19T00:25:17;97801.50;;;19.94;64.11
79413;BME280;68863;49.528;11.010;2023-09-19T00:26:17;97794.78;;;19.98;63.66
79413;BME280;68863;49.528;11.010;2023-09-19T00:27:18;97801.78;;;19.99;63.44
79413;BME280;68863;49.528;11.010;2023-09-19T00:28:18;97796.66;;;19.89;64.25
79413;BME280;68863;49.528;11.010;2023-09-19T00:29:19;97799.28;;;19.97;63.55
79413;BME280;68863;49.528;11.010;2023-09-19T00:30:20;97797.69;;;19.88;63.69
79413;BME280;68863;49.528;11.010;2023-09-19T00:31:20;97792.84;;;19.92;63.39
79413;BME280;68863;49.528;11.010;2023-09-19T00:32:25;97795.75;;;19.82;64.08
79413;BME280;68863;49.528;11.010;2023-09-19T00:33:30;97806.44;;;19.97;63.71
79413;BME280;68863;49.528;11.010;2023-09-19T00:34:31;97802.94;;;19.96;64.04
79413;BME280;68863;49.528;11.010;2023-09-19T00:35:31;97804.63;;;19.97;63.72
79413;BME280;68863;49.528;11.010;2023-09-19T00:36:31;97801.84;;;19.91;63.32
79413;BME280;68863;49.528;11.010;2023-09-19T00:37:33;97794.47;;;19.93;62.48
79413;BME280;68863;49.528;11.010;2023-09-19T00:38:34;97799.34;;;19.89;63.09
79413;BME280;68863;49.528;11.010;2023-09-19T00:39:34;97795.50;;;19.92;62.48
79413;BME280;68863;49.528;11.010;2023-09-19T00:40:34;97800.53;;;19.87;62.93
79413;BME280;68863;49.528;11.010;2023-09-19T00:41:35;97798.41;;;19.82;62.84
79413;BME280;68863;49.528;11.010;2023-09-19T00:42:39;97802.84;;;19.90;63.39
79413;BME280;68863;49.528;11.010;2023-09-19T00:43:40;97798.00;;;19.93;62.70
79413;BME280;68863;49.528;11.010;2023-09-19T00:44:40;97803.78;;;19.97;62.87
79413;BME280;68863;49.528;11.010;2023-09-19T00:45:46;97807.84;;;20.07;62.20
79413;BME280;68863;49.528;11.010;2023-09-19T00:46:48;97804.78;;;19.96;63.16
79413;BME280;68863;49.528;11.010;2023-09-19T00:47:50;97807.72;;;20.01;62.54
79413;BME280;68863;49.528;11.010;2023-09-19T00:48:51;97807.38;;;20.04;63.13
79413;BME280;68863;49.528;11.010;2023-09-19T00:49:51;97804.44;;;19.99;62.54
79413;BME280;68863;49.528;11.010;2023-09-19T00:50:53;97804.16;;;19.94;62.48
79413;BME280;68863;49.528;11.010;2023-09-19T00:51:54;97809.44;;;19.79;63.47
79413;BME280;68863;49.528;11.010;2023-09-19T00:52:55;97801.38;;;19.87;63.23
79413;BME280;68863;49.528;11.010;2023-09-19T00:53:59;97806.44;;;19.97;62.17
79413;BME280;68863;49.528;11.010;2023-09-19T00:54:59;97808.81;;;19.92;62.95
79413;BME280;68863;49.528;11.010;2023-09-19T00:56:01;97819.91;;;19.80;63.23
79413;BME280;68863;49.528;11.010;2023-09-19T00:57:03;97815.63;;;19.94;62.58
79413;BME280;68863;49.528;11.010;2023-09-19T00:58:04;97811.47;;;19.92;62.71
79413;BME280;68863;49.528;11.010;2023-09-19T00:59:07;97810.19;;;19.88;62.65
79413;BME280;68863;49.528;11.010;2023-09-19T01:00:08;97813.47;;;19.75;63.50
79413;BME280;68863;49.528;11.010;2023-09-19T01:01:15;97814.34;;;19.67;63.20
79413;BME280;68863;49.528;11.010;2023-09-19T01:02:16;97814.63;;;19.72;63.62
79413;BME280;68863;49.528;11.010;2023-09-19T01:03:17;97819.72;;;19.82;62.87
79413;BME280;68863;49.528;11.010;2023-09-19T01:04:18;97819.91;;;19.80;62.93
79413;BME280;68863;49.528;11.010;2023-09-19T01:05:18;97814.63;;;19.72;62.98
79413;BME280;68863;49.528;11.010;2023-09-19T01:06:19;97818.53;;;19.85;62.70
79413;BME280;68863;49.528;11.010;2023-09-19T01:07:19;97817.81;;;19.91;62.58
79413;BME280;68863;49.528;11.010;2023-09-19T01:08:21;97822.41;;;19.97;62.08
79413;BME280;68863;49.528;11.010;2023-09-19T01:09:21;97822.91;;;19.77;63.07
79413;BME280;68863;49.528;11.010;2023-09-19T01:10:22;97825.00;;;19.67;63.52
79413;BME280;68863;49.528;11.010;2023-09-19T01:11:35;97823.44;;;19.73;63.62
79413;BME280;68863;49.528;11.010;2023-09-19T01:12:45;97825.38;;;19.56;63.48
79413;BME280;68863;49.528;11.010;2023-09-19T01:15:21;97827.78;;;19.43;63.44
79413;BME280;68863;49.528;11.010;2023-09-19T01:16:36;97824.41;;;19.49;63.32
79413;BME280;68863;49.528;11.010;2023-09-19T01:17:47;97830.34;;;19.59;62.91
79413;BME280;68863;49.528;11.010;2023-09-19T01:19:02;97833.28;;;19.41;63.18
79413;BME280;68863;49.528;11.010;2023-09-19T01:20:26;97826.25;;;19.48;63.09
79413;BME280;68863;49.528;11.010;2023-09-19T01:22:48;97837.19;;;19.53;63.15
79413;BME280;68863;49.528;11.010;2023-09-19T01:28:14;97835.59;;;19.44;63.88
79413;BME280;68863;49.528;11.010;2023-09-19T01:28:52;97842.84;;;19.27;63.70
79413;BME280;68863;49.528;11.010;2023-09-19T01:30:13;97841.31;;;19.33;64.01
79413;BME280;68863;49.528;11.010;2023-09-19T01:31:14;97843.34;;;19.23;63.59
79413;BME280;68863;49.528;11.010;2023-09-19T01:32:19;97843.31;;;19.00;64.79
79413;BME280;68863;49.528;11.010;2023-09-19T01:33:21;97845.06;;;19.16;64.33
79413;BME280;68863;49.528;11.010;2023-09-19T01:34:23;97846.38;;;19.20;64.22
79413;BME280;68863;49.528;11.010;2023-09-19T01:35:23;97851.47;;;19.29;63.70
79413;BME280;68863;49.528;11.010;2023-09-19T01:36:23;97845.84;;;19.24;63.99
79413;BME280;68863;49.528;11.010;2023-09-19T01:37:24;97839.16;;;19.28;63.66
79413;BME280;68863;49.528;11.010;2023-09-19T01:38:25;97840.47;;;19.32;64.03
79413;BME280;68863;49.528;11.010;2023-09-19T01:39:29;97838.13;;;18.98;64.59
79413;BME280;68863;49.528;11.010;2023-09-19T01:40:29;97848.06;;;19.13;64.63
79413;BME280;68863;49.528;11.010;2023-09-19T01:41:51;97839.97;;;18.98;64.72
79413;BME280;68863;49.528;11.010;2023-09-19T01:46:17;97844.34;;;19.22;64.26
79413;BME280;68863;49.528;11.010;2023-09-19T01:47:55;97844.56;;;19.12;64.76
79413;BME280;68863;49.528;11.010;2023-09-19T01:50:38;97847.50;;;19.25;64.33
79413;BME280;68863;49.528;11.010;2023-09-19T01:52:02;97848.97;;;18.97;65.36
79413;BME280;68863;49.528;11.010;2023-09-19T01:54:45;97842.91;;;19.11;65.64
79413;BME280;68863;49.528;11.010;2023-09-19T01:55:49;97843.56;;;19.13;64.96
79413;BME280;68863;49.528;11.010;2023-09-19T01:56:57;97841.53;;;19.15;64.82
79413;BME280;68863;49.528;11.010;2023-09-19T01:58:08;97840.28;;;19.03;65.10
79413;BME280;68863;49.528;11.010;2023-09-19T01:59:21;97845.53;;;19.19;64.56
79413;BME280;68863;49.528;11.010;2023-09-19T02:00:23;97842.47;;;19.30;64.62
79413;BME280;68863;49.528;11.010;2023-09-19T02:01:25;97843.94;;;19.02;65.06
79413;BME280;68863;49.528;11.010;2023-09-19T02:02:27;97850.00;;;19.19;65.12
79413;BME280;68863;49.528;11.010;2023-09-19T02:03:29;97844.75;;;19.02;65.07
79413;BME280;68863;49.528;11.010;2023-09-19T02:04:33;97841.94;;;19.04;65.53
79413;BME280;68863;49.528;11.010;2023-09-19T02:05:35;97856.03;;;19.13;65.59
79413;BME280;68863;49.528;11.010;2023-09-19T02:06:35;97847.53;;;19.17;64.72
79413;BME280;68863;49.528;11.010;2023-09-19T02:07:35;97851.41;;;19.06;65.14
79413;BME280;68863;49.528;11.010;2023-09-19T02:08:38;97850.59;;;18.98;65.59
79413;BME280;68863;49.528;11.010;2023-09-19T02:09:40;97853.16;;;19.22;64.78
79413;BME280;68863;49.528;11.010;2023-09-19T02:10:42;97842.06;;;19.10;65.21
79413;BME280;68863;49.528;11.010;2023-09-19T02:11:42;97848.59;;;19.08;65.39
79413;BME280;68863;49.528;11.010;2023-09-19T02:12:43;97858.25;;;19.01;65.78
79413;BME280;68863;49.528;11.010;2023-09-19T02:13:43;97854.69;;;19.17;65.18
79413;BME280;68863;49.528;11.010;2023-09-19T02:14:43;97853.84;;;19.24;64.89
79413;BME280;68863;49.528;11.010;2023-09-19T02:15:44;97856.88;;;19.13;64.47
79413;BME280;68863;49.528;11.010;2023-09-19T02:16:45;97864.19;;;19.19;65.03
79413;BME280;68863;49.528;11.010;2023-09-19T02:17:45;97860.16;;;19.15;65.18
79413;BME280;68863;49.528;11.010;2023-09-19T02:18:49;97857.28;;;18.94;65.68
79413;BME280;68863;49.528;11.010;2023-09-19T02:19:49;97870.25;;;18.97;66.07
79413;BME280;68863;49.528;11.010;2023-09-19T02:20:50;97855.72;;;19.16;65.33
79413;BME280;68863;49.528;11.010;2023-09-19T02:21:54;97856.00;;;19.21;65.02
79413;BME280;68863;49.528;11.010;2023-09-19T02:22:54;97854.72;;;19.08;65.69
79413;BME280;68863;49.528;11.010;2023-09-19T02:23:55;97857.50;;;19.15;65.38
79413;BME280;68863;49.528;11.010;2023-09-19T02:24:56;97856.19;;;19.19;64.82
79413;BME280;68863;49.528;11.010;2023-09-19T02:26:00;97858.41;;;19.07;65.04
79413;BME280;68863;49.528;11.010;2023-09-19T02:27:06;97857.69;;;19.14;65.05
79413;BME280;68863;49.528;11.010;2023-09-19T02:28:07;97865.03;;;19.12;65.52
79413;BME280;68863;49.528;11.010;2023-09-19T02:29:09;97864.78;;;19.29;64.64
79413;BME280;68863;49.528;11.010;2023-09-19T02:30:13;97869.94;;;19.23;64.87
79413;BME280;68863;49.528;11.010;2023-09-19T02:31:15;97873.63;;;19.22;64.75
79413;BME280;68863;49.528;11.010;2023-09-19T02:32:16;97871.25;;;19.27;65.17
79413;BME280;68863;49.528;11.010;2023-09-19T02:33:18;97873.28;;;19.25;65.37
79413;BME280;68863;49.528;11.010;2023-09-19T02:34:19;97873.09;;;19.26;64.99
79413;BME280;68863;49.528;11.010;2023-09-19T02:35:20;97878.69;;;19.08;65.06
79413;BME280;68863;49.528;11.010;2023-09-19T02:36:20;97869.13;;;19.22;65.21
79413;BME280;68863;49.528;11.010;2023-09-19T02:37:21;97875.31;;;19.15;65.46
79413;BME280;68863;49.528;11.010;2023-09-19T02:38:21;97873.09;;;19.26;64.60
79413;BME280;68863;49.528;11.010;2023-09-19T02:39:24;97876.31;;;19.14;65.30
79413;BME280;68863;49.528;11.010;2023-09-19T02:40:25;97882.81;;;19.19;65.43
79413;BME280;68863;49.528;11.010;2023-09-19T02:41:34;97881.47;;;19.23;64.78
79413;BME280;68863;49.528;11.010;2023-09-19T02:42:34;97879.91;;;19.29;63.43
79413;BME280;68863;49.528;11.010;2023-09-19T02:43:34;97874.41;;;19.39;64.12
79413;BME280;68863;49.528;11.010;2023-09-19T02:44:35;97877.69;;;19.41;63.88
79413;BME280;68863;49.528;11.010;2023-09-19T02:45:35;97881.09;;;19.26;64.63
79413;BME280;68863;49.528;11.010;2023-09-19T02:46:36;97876.47;;;19.20;64.46
79413;BME280;68863;49.528;11.010;2023-09-19T02:47:36;97880.75;;;19.29;64.33
79413;BME280;68863;49.528;11.010;2023-09-19T02:48:36;97880.06;;;19.36;64.34
79413;BME280;68863;49.528;11.010;2023-09-19T02:49:37;97874.56;;;19.37;64.02
79413;BME280;68863;49.528;11.010;2023-09-19T02:50:37;97875.00;;;19.49;63.60
79413;BME280;68863;49.528;11.010;2023-09-19T02:51:39;97873.72;;;19.37;63.81
79413;BME280;68863;49.528;11.010;2023-09-19T02:52:43;97876.34;;;19.45;64.02
79413;BME280;68863;49.528;11.010;2023-09-19T02:53:43;97878.03;;;19.38;64.09
79413;BME280;68863;49.528;11.010;2023-09-19T02:54:44;97877.22;;;19.37;64.41
79413;BME280;68863;49.528;11.010;2023-09-19T02:55:46;97878.66;;;19.48;63.32
79413;BME280;68863;49.528;11.010;2023-09-19T02:56:47;97878.81;;;19.46;63.48
79413;BME280;68863;49.528;11.010;2023-09-19T02:57:49;97875.53;;;19.44;63.22
79413;BME280;68863;49.528;11.010;2023-09-19T02:58:49;97878.16;;;19.52;63.01
79413;BME280;68863;49.528;11.010;2023-09-19T02:59:50;97882.13;;;19.56;62.39
79413;BME280;68863;49.528;11.010;2023-09-19T03:00:50;97886.66;;;19.48;63.36
79413;BME280;68863;49.528;11.010;2023-09-19T03:01:51;97883.28;;;19.62;62.99
79413;BME280;68863;49.528;11.010;2023-09-19T03:02:55;97881.28;;;19.64;62.08
79413;BME280;68863;49.528;11.010;2023-09-19T03:03:56;97884.47;;;19.51;62.28
79413;BME280;68863;49.528;11.010;2023-09-19T03:04:56;97889.81;;;19.51;62.74
79413;BME280;68863;49.528;11.010;2023-09-19T03:05:56;97890.81;;;19.50;62.50
79413;BME280;68863;49.528;11.010;2023-09-19T03:06:58;97890.34;;;19.47;62.97
79413;BME280;68863;49.528;11.010;2023-09-19T03:08:01;97886.63;;;19.56;62.02
79413;BME280;68863;49.528;11.010;2023-09-19T03:09:01;97888.25;;;19.57;61.87
79413;BME280;68863;49.528;11.010;2023-09-19T03:10:03;97894.31;;;19.51;62.26
79413;BME280;68863;49.528;11.010;2023-09-19T03:11:08;97895.78;;;19.53;62.27
79413;BME280;68863;49.528;11.010;2023-09-19T03:12:11;97898.75;;;19.58;61.64
79413;BME280;68863;49.528;11.010;2023-09-19T03:13:12;97896.25;;;19.57;62.38
79413;BME280;68863;49.528;11.010;2023-09-19T03:14:12;97899.09;;;19.55;61.85
79413;BME280;68863;49.528;11.010;2023-09-19T03:15:14;97895.81;;;19.45;62.42
79413;BME280;68863;49.528;11.010;2023-09-19T03:16:15;97896.25;;;19.57;61.88
79413;BME280;68863;49.528;11.010;2023-09-19T03:17:15;97895.09;;;19.59;62.17
79413;BME280;68863;49.528;11.010;2023-09-19T03:18:16;97897.25;;;19.56;62.42
79413;BME280;68863;49.528;11.010;2023-09-19T03:19:16;97894.25;;;19.59;62.52
79413;BME280;68863;49.528;11.010;2023-09-19T03:20:16;97897.31;;;19.48;62.07
79413;BME280;68863;49.528;11.010;2023-09-19T03:21:21;97898.75;;;19.58;62.55
79413;BME280;68863;49.528;11.010;2023-09-19T03:22:21;97896.47;;;19.47;62.46
79413;BME280;68863;49.528;11.010;2023-09-19T03:23:25;97895.94;;;19.52;62.90
79413;BME280;68863;49.528;11.010;2023-09-19T03:24:26;97894.16;;;19.44;62.79
79413;BME280;68863;49.528;11.010;2023-09-19T03:25:29;97894.25;;;19.59;62.55
79413;BME280;68863;49.528;11.010;2023-09-19T03:26:30;97894.59;;;19.56;62.43
79413;BME280;68863;49.528;11.010;2023-09-19T03:27:30;97903.41;;;19.56;62.16
79413;BME280;68863;49.528;11.010;2023-09-19T03:28:33;97906.78;;;19.50;62.34
79413;BME280;68863;49.528;11.010;2023-09-19T03:29:33;97903.59;;;19.55;62.41
79413;BME280;68863;49.528;11.010;2023-09-19T03:30:34;97904.63;;;19.46;62.56
79413;BME280;68863;49.528;11.010;2023-09-19T03:31:34;97894.94;;;19.53;62.14
79413;BME280;68863;49.528;11.010;2023-09-19T03:32:37;97900.84;;;19.40;62.57
79413;BME280;68863;49.528;11.010;2023-09-19T03:33:43;97908.97;;;19.47;62.73
79413;BME280;68863;49.528;11.010;2023-09-19T03:34:43;97908.13;;;19.46;62.48
79413;BME280;68863;49.528;11.010;2023-09-19T03:35:52;97898.97;;;19.49;62.40
79413;BME280;68863;49.528;11.010;2023-09-19T03:36:52;97903.94;;;19.52;62.32
79413;BME280;68863;49.528;11.010;2023-09-19T03:37:52;97902.50;;;19.41;62.63
79413;BME280;68863;49.528;11.010;2023-09-19T03:38:53;97904.28;;;19.49;62.57
79413;BME280;68863;49.528;11.010;2023-09-19T03:39:53;97900.88;;;19.32;62.37
79413;BME280;68863;49.528;11.010;2023-09-19T03:40:53;97892.50;;;19.43;62.51
79413;BME280;68863;49.528;11.010;2023-09-19T03:41:53;97902.97;;;19.45;62.15
79413;BME280;68863;49.528;11.010;2023-09-19T03:42:54;97898.91;;;19.57;61.82
79413;BME280;68863;49.528;11.010;2023-09-19T03:43:55;97902.41;;;19.57;62.30
79413;BME280;68863;49.528;11.010;2023-09-19T03:44:56;97895.66;;;19.47;62.13
79413;BME280;68863;49.528;11.010;2023-09-19T03:46:01;97900.97;;;19.47;62.22
79413;BME280;68863;49.528;11.010;2023-09-19T03:47:03;97900.97;;;19.47;62.47
79413;BME280;68863;49.528;11.010;2023-09-19T03:48:10;97904.13;;;19.50;61.70
79413;BME280;68863;49.528;11.010;2023-09-19T03:49:11;97904.13;;;19.50;62.29
79413;BME280;68863;49.528;11.010;2023-09-19T03:50:11;97902.97;;;19.45;62.94
79413;BME280;68863;49.528;11.010;2023-09-19T03:51:11;97904.63;;;19.46;62.61
79413;BME280;68863;49.528;11.010;2023-09-19T03:52:12;97907.25;;;19.54;62.20
79413;BME280;68863;49.528;11.010;2023-09-19T03:53:12;97907.47;;;19.44;62.69
79413;BME280;68863;49.528;11.010;2023-09-19T03:54:13;97911.09;;;19.51;62.25
79413;BME280;68863;49.528;11.010;2023-09-19T03:55:14;97905.00;;;19.43;62.82
79413;BME280;68863;49.528;11.010;2023-09-19T03:56:17;97910.97;;;19.45;62.47
79413;BME280;68863;49.528;11.010;2023-09-19T03:57:17;97908.91;;;19.24;62.86
79413;BME280;68863;49.528;11.010;2023-09-19T03:58:20;97911.34;;;19.33;62.47
79413;BME280;68863;49.528;11.010;2023-09-19T03:59:21;97916.03;;;19.31;62.77
79413;BME280;68863;49.528;11.010;2023-09-19T04:00:22;97914.00;;;19.33;62.74
79413;BME280;68863;49.528;11.010;2023-09-19T04:01:24;97914.53;;;19.29;62.84
79413;BME280;68863;49.528;11.010;2023-09-19T04:02:24;97930.31;;;19.30;62.74
79413;BME280;68863;49.528;11.010;2023-09-19T04:03:25;97919.00;;;19.37;62.54
79413;BME280;68863;49.528;11.010;2023-09-19T04:04:37;97922.31;;;19.30;62.99
79413;BME280;68863;49.528;11.010;2023-09-19T04:05:37;97927.16;;;19.27;62.66
79413;BME280;68863;49.528;11.010;2023-09-19T04:06:37;97926.53;;;19.25;62.92
79413;BME280;68863;49.528;11.010;2023-09-19T04:07:37;97919.50;;;19.32;62.69
79413;BME280;68863;49.528;11.010;2023-09-19T04:08:38;97927.16;;;19.27;63.30
79413;BME280;68863;49.528;11.010;2023-09-19T04:09:38;97925.84;;;19.23;63.68
79413;BME280;68863;49.528;11.010;2023-09-19T04:10:42;97920.97;;;19.43;62.46
79413;BME280;68863;49.528;11.010;2023-09-19T04:11:43;97922.97;;;19.41;63.07
79413;BME280;68863;49.528;11.010;2023-09-19T04:12:51;97929.34;;;19.31;62.92
79413;BME280;68863;49.528;11.010;2023-09-19T04:13:52;97928.13;;;19.34;63.41
79413;BME280;68863;49.528;11.010;2023-09-19T04:14:52;97925.69;;;19.24;63.16
79413;BME280;68863;49.528;11.010;2023-09-19T04:15:52;97924.66;;;19.33;63.52
79413;BME280;68863;49.528;11.010;2023-09-19T04:16:53;97933.13;;;19.37;62.78
79413;BME280;68863;49.528;11.010;2023-09-19T04:17:53;97930.31;;;19.39;62.95
79413;BME280;68863;49.528;11.010;2023-09-19T04:18:54;97933.66;;;19.32;63.17
79413;BME280;68863;49.528;11.010;2023-09-19T04:19:54;97934.78;;;19.38;63.09
79413;BME280;68863;49.528;11.010;2023-09-19T04:20:54;97935.16;;;19.35;62.73
79413;BME280;68863;49.528;11.010;2023-09-19T04:21:56;97936.31;;;19.32;62.76
79413;BME280;68863;49.528;11.010;2023-09-19T04:22:56;97939.63;;;19.34;62.78
79413;BME280;68863;49.528;11.010;2023-09-19T04:23:56;97931.84;;;19.25;63.06
79413;BME280;68863;49.528;11.010;2023-09-19T04:24:56;97932.84;;;19.24;63.32
79413;BME280;68863;49.528;11.010;2023-09-19T04:25:57;97929.16;;;19.33;62.84
79413;BME280;68863;49.528;11.010;2023-09-19T04:27:00;97938.19;;;19.24;63.53
79413;BME280;68863;49.528;11.010;2023-09-19T04:28:00;97933.34;;;19.27;62.91
79413;BME280;68863;49.528;11.010;2023-09-19T04:29:01;97930.50;;;19.29;62.84
79413;BME280;68863;49.528;11.010;2023-09-19T04:30:01;97937.34;;;19.23;63.26
79413;BME280;68863;49.528;11.010;2023-09-19T04:31:03;97935.00;;;19.28;63.24
79413;BME280;68863;49.528;11.010;2023-09-19T04:32:04;97938.97;;;19.32;63.26
79413;BME280;68863;49.528;11.010;2023-09-19T04:33:06;97936.09;;;19.42;62.38
79413;BME280;68863;49.528;11.010;2023-09-19T04:34:06;97938.66;;;19.27;62.84
79413;BME280;68863;49.528;11.010;2023-09-19T04:35:09;97936.66;;;19.29;63.66
79413;BME280;68863;49.528;11.010;2023-09-19T04:36:10;97939.97;;;19.31;63.00
79413;BME280;68863;49.528;11.010;2023-09-19T04:37:10;97948.63;;;19.25;63.88
79413;BME280;68863;49.528;11.010;2023-09-19T04:38:11;97943.63;;;19.30;63.48
79413;BME280;68863;49.528;11.010;2023-09-19T04:39:12;97932.31;;;19.37;63.10
79413;BME280;68863;49.528;11.010;2023-09-19T04:40:13;97940.81;;;19.32;63.52
79413;BME280;68863;49.528;11.010;2023-09-19T04:41:18;97941.81;;;19.31;63.27
79413;BME280;68863;49.528;11.010;2023-09-19T04:42:18;97936.31;;;19.32;63.31
79413;BME280;68863;49.528;11.010;2023-09-19T04:43:19;97942.31;;;19.26;63.11
79413;BME280;68863;49.528;11.010;2023-09-19T04:44:19;97944.66;;;19.21;63.25
79413;BME280;68863;49.528;11.010;2023-09-19T04:45:19;97946.94;;;19.32;63.05
79413;BME280;68863;49.528;11.010;2023-09-19T04:46:20;97952.91;;;19.43;63.04
79413;BME280;68863;49.528;11.010;2023-09-19T04:47:20;97944.78;;;19.36;63.58
79413;BME280;68863;49.528;11.010;2023-09-19T04:48:22;97943.63;;;19.30;63.45
79413;BME280;68863;49.528;11.010;2023-09-19T04:49:25;97950.59;;;19.40;63.17
79413;BME280;68863;49.528;11.010;2023-09-19T04:50:25;97943.28;;;19.33;63.54
79413;BME280;68863;49.528;11.010;2023-09-19T04:51:28;97950.25;;;19.43;63.54
79413;BME280;68863;49.528;11.010;2023-09-19T04:52:36;97952.34;;;19.55;63.05
79413;BME280;68863;49.528;11.010;2023-09-19T04:53:37;97954.34;;;19.53;63.37
79413;BME280;68863;49.528;11.010;2023-09-19T04:54:37;97947.25;;;19.38;63.80
79413;BME280;68863;49.528;11.010;2023-09-19T04:55:38;97945.72;;;19.51;63.35
79413;BME280;68863;49.528;11.010;2023-09-19T04:56:38;97955.59;;;19.43;63.93
79413;BME280;68863;49.528;11.010;2023-09-19T04:57:40;97952.25;;;19.41;63.46
79413;BME280;68863;49.528;11.010;2023-09-19T04:58:40;97948.94;;;19.39;63.96
79413;BME280;68863;49.528;11.010;2023-09-19T04:59:41;97949.59;;;19.41;64.08
79413;BME280;68863;49.528;11.010;2023-09-19T05:00:41;97954.34;;;19.53;63.26
79413;BME280;68863;49.528;11.010;2023-09-19T05:01:41;97940.16;;;19.61;63.15
79413;BME280;68863;49.528;11.010;2023-09-19T05:02:42;97953.38;;;19.54;63.55
79413;BME280;68863;49.528;11.010;2023-09-19T05:03:43;97951.88;;;19.52;63.70
79413;BME280;68863;49.528;11.010;2023-09-19T05:04:44;97950.91;;;19.45;63.82
79413;BME280;68863;49.528;11.010;2023-09-19T05:05:45;97957.53;;;19.49;63.55
79413;BME280;68863;49.528;11.010;2023-09-19T05:06:45;97951.03;;;19.51;63.26
79413;BME280;68863;49.528;11.010;2023-09-19T05:07:46;97959.03;;;19.51;63.20
79413;BME280;68863;49.528;11.010;2023-09-19T05:08:50;97955.22;;;19.46;63.59
79413;BME280;68863;49.528;11.010;2023-09-19T05:09:52;97959.88;;;19.52;63.41
79413;BME280;68863;49.528;11.010;2023-09-19T05:10:55;97958.84;;;19.53;63.60
79413;BME280;68863;49.528;11.010;2023-09-19T05:11:56;97964.84;;;19.63;63.86
79413;BME280;68863;49.528;11.010;2023-09-19T05:12:56;97964.47;;;19.58;63.52
79413;BME280;68863;49.528;11.010;2023-09-19T05:13:57;97958.50;;;19.56;63.16
79413;BME280;68863;49.528;11.010;2023-09-19T05:14:57;97964.38;;;19.51;63.93
79413;BME280;68863;49.528;11.010;2023-09-19T05:16:00;97964.84;;;19.55;63.41
79413;BME280;68863;49.528;11.010;2023-09-19T05:17:02;97958.19;;;19.59;63.37
79413;BME280;68863;49.528;11.010;2023-09-19T05:18:04;97960.97;;;19.66;63.00
79413;BME280;68863;49.528;11.010;2023-09-19T05:19:06;97965.50;;;19.57;64.01
79413;BME280;68863;49.528;11.010;2023-09-19T05:20:06;97964.66;;;19.56;64.42
79413;BME280;68863;49.528;11.010;2023-09-19T05:21:16;97969.16;;;19.56;64.24
79413;BME280;68863;49.528;11.010;2023-09-19T05:22:17;97969.34;;;19.63;63.37
79413;BME280;68863;49.528;11.010;2023-09-19T05:23:18;97963.00;;;19.55;63.36
79413;BME280;68863;49.528;11.010;2023-09-19T05:24:21;97972.00;;;19.54;63.46
79413;BME280;68863;49.528;11.010;2023-09-19T05:25:23;97965.84;;;19.54;63.08
79413;BME280;68863;49.528;11.010;2023-09-19T05:26:25;97969.16;;;19.56;63.16
79413;BME280;68863;49.528;11.010;2023-09-19T05:27:25;97967.84;;;19.52;63.10
79413;BME280;68863;49.528;11.010;2023-09-19T05:28:26;97966.50;;;19.56;62.63
79413;BME280;68863;49.528;11.010;2023-09-19T05:29:26;97974.88;;;19.45;63.31
79413;BME280;68863;49.528;11.010;2023-09-19T05:30:27;97977.16;;;19.56;62.95
79413;BME280;68863;49.528;11.010;2023-09-19T05:31:29;97975.69;;;19.45;63.36
79413;BME280;68863;49.528;11.010;2023-09-19T05:32:29;97978.50;;;19.52;63.03
79413;BME280;68863;49.528;11.010;2023-09-19T05:33:29;97981.47;;;19.57;62.84
79413;BME280;68863;49.528;11.010;2023-09-19T05:34:31;97984.81;;;19.59;62.79
79413;BME280;68863;49.528;11.010;2023-09-19T05:35:32;97979.16;;;19.62;63.05
79413;BME280;68863;49.528;11.010;2023-09-19T05:36:32;97986.97;;;19.64;63.15
79413;BME280;68863;49.528;11.010;2023-09-19T05:37:33;97982.78;;;19.69;63.20
79413;BME280;68863;49.528;11.010;2023-09-19T05:38:34;97985.41;;;19.77;62.89